Querinda Park, New Mexico
Current Conditions -  °F | °C
As of 5:35 AM on Monday 22 Dec 2014 (Local Time) from KAXX Reporting Station
Scattered Clouds Scattered Clouds  
Wind Chill: 20°   Ceiling: Unl
Heat Index: 32°   Visibility: 10mi
Dew Point: 26°   Wind: 18mph
Humidity: 80%   Direction: 270°W
Pressure: 29.8"   Gusts: 26mph
Location:  36.7124°N, 105.403°W
Report Text: KAXX 221235Z AUTO 27016G23KT 10SM SCT055 SCT070 00/M03 A2980 RMK AO2 T00001031
Loading
Personal Weather Stations






























Interactive Weather Map New forecast layout! Learn more

10-Day Weather Forecast

Advertisements
Track Severe Weather on mobile